^^
Station Historical Data
Daily Summary for March 10, 2017 Units:  Both    English   Metric
« Previous Day
Next Day »
Daily Weekly Monthly Yearly Custom
  High: Low: Average:
Temperature: 83.3 °F /  28.5 °C 57.4 °F /  14.1 °C 71.4 °F /  21.9 °C
Dew Point: 56.3 °F /  13.5 °C 46.6 °F /  8.1 °C 52 °F /  11.1 °C
Humidity: 85% 29% 54%
Wind Speed: 14.1mph /  22.7km/h - 2.9mph /  4.7km/h
Wind Gust: 18.0mph /  29km/h - -
Wind- - ESE
Pressure: 29.85 in /  1010.7 hPa 29.74 in /  1007 hPa -
Precipitation: 0.00 in /  0 mm    
Historical Graphs
 
 
Tabular Data for March 10, 2017
Time Temperature Dew Point Pressure Wind Wind Speed Wind Gust Humidity Rainfall Rate (Hourly) solar Conditions
00:03 70.3 °F /  21.3 °C 54.3 °F /  12.4 °C 29.78in /  1008.4hPa SE 4.0mph /  6.4km/h 5.0mph /  8km/h 57% 0.00in /  0mm 0.0 W/m2
00:09 70.0 °F /  21.1 °C 54.5 °F /  12.5 °C 29.78in /  1008.4hPa SE 0.9mph /  1.4km/h 4.0mph /  6.4km/h 58% 0.00in /  0mm 0.0 W/m2
00:16 69.8 °F /  21 °C 54.9 °F /  12.7 °C 29.78in /  1008.4hPa ESE 2.9mph /  4.7km/h 5.0mph /  8km/h 59% 0.00in /  0mm 0.0 W/m2
00:22 69.4 °F /  20.8 °C 54.5 °F /  12.5 °C 29.78in /  1008.4hPa ESE 2.9mph /  4.7km/h 5.0mph /  8km/h 59% 0.00in /  0mm 0.0 W/m2
00:28 69.3 °F /  20.7 °C 54.9 °F /  12.7 °C 29.78in /  1008.4hPa SSE 4.9mph /  7.9km/h 6.0mph /  9.7km/h 60% 0.00in /  0mm 0.0 W/m2
00:34 69.1 °F /  20.6 °C 54.7 °F /  12.6 °C 29.78in /  1008.4hPa SE 4.0mph /  6.4km/h 5.0mph /  8km/h 60% 0.00in /  0mm 0.0 W/m2
00:40 68.7 °F /  20.4 °C 54.3 °F /  12.4 °C 29.78in /  1008.4hPa ESE 2.0mph /  3.2km/h 5.0mph /  8km/h 60% 0.00in /  0mm 0.0 W/m2
00:46 68.7 °F /  20.4 °C 54.7 °F /  12.6 °C 29.78in /  1008.4hPa ESE 4.0mph /  6.4km/h 7.0mph /  11.3km/h 61% 0.00in /  0mm 0.0 W/m2
00:52 68.5 °F /  20.3 °C 54.1 °F /  12.3 °C 29.78in /  1008.4hPa East 0.9mph /  1.4km/h 6.0mph /  9.7km/h 60% 0.00in /  0mm 0.0 W/m2
00:58 68.4 °F /  20.2 °C 54.3 °F /  12.4 °C 29.77in /  1008hPa Calm   1.0mph /  1.6km/h 61% 0.00in /  0mm 0.0 W/m2
01:04 68.2 °F /  20.1 °C 54.7 °F /  12.6 °C 29.77in /  1008hPa Calm   3.0mph /  4.8km/h 62% 0.00in /  0mm 0.0 W/m2
01:11 67.6 °F /  19.8 °C 55.0 °F /  12.8 °C 29.78in /  1008.4hPa Calm   2.0mph /  3.2km/h 64% 0.00in /  0mm 0.0 W/m2
01:17 67.3 °F /  19.6 °C 55.6 °F /  13.1 °C 29.78in /  1008.4hPa ENE 0.9mph /  1.4km/h 3.0mph /  4.8km/h 66% 0.00in /  0mm 0.0 W/m2
01:23 66.6 °F /  19.2 °C 55.2 °F /  12.9 °C 29.78in /  1008.4hPa Calm   1.0mph /  1.6km/h 67% 0.00in /  0mm 0.0 W/m2
01:29 66.0 °F /  18.9 °C 55.6 °F /  13.1 °C 29.78in /  1008.4hPa East 0.9mph /  1.4km/h 2.0mph /  3.2km/h 69% 0.00in /  0mm 0.0 W/m2
01:35 65.7 °F /  18.7 °C 55.2 °F /  12.9 °C 29.77in /  1008hPa Calm   4.0mph /  6.4km/h 69% 0.00in /  0mm 0.0 W/m2
01:41 65.1 °F /  18.4 °C 55.0 °F /  12.8 °C 29.77in /  1008hPa ENE 0.9mph /  1.4km/h 3.0mph /  4.8km/h 70% 0.00in /  0mm 0.0 W/m2
01:47 64.9 °F /  18.3 °C 55.4 °F /  13 °C 29.77in /  1008hPa SSE 2.0mph /  3.2km/h 5.0mph /  8km/h 71% 0.00in /  0mm 0.0 W/m2
01:53 64.8 °F /  18.2 °C 55.2 °F /  12.9 °C 29.77in /  1008hPa Calm   4.0mph /  6.4km/h 71% 0.00in /  0mm 0.0 W/m2
02:00 64.6 °F /  18.1 °C 55.0 °F /  12.8 °C 29.77in /  1008hPa Calm   3.0mph /  4.8km/h 71% 0.00in /  0mm 0.0 W/m2
02:06 64.4 °F /  18 °C 54.9 °F /  12.7 °C 29.77in /  1008hPa NE 0.9mph /  1.4km/h 5.0mph /  8km/h 71% 0.00in /  0mm 0.0 W/m2
02:12 64.2 °F /  17.9 °C 54.7 °F /  12.6 °C 29.77in /  1008hPa Calm   3.0mph /  4.8km/h 71% 0.00in /  0mm 0.0 W/m2
02:18 64.0 °F /  17.8 °C 55.2 °F /  12.9 °C 29.77in /  1008hPa Calm     73% 0.00in /  0mm 0.0 W/m2
02:24 63.9 °F /  17.7 °C 55.0 °F /  12.8 °C 29.76in /  1007.7hPa Calm   4.0mph /  6.4km/h 73% 0.00in /  0mm 0.0 W/m2
02:30 63.7 °F /  17.6 °C 55.2 °F /  12.9 °C 29.76in /  1007.7hPa ESE 6.0mph /  9.7km/h 6.0mph /  9.7km/h 74% 0.00in /  0mm 0.0 W/m2
02:36 63.5 °F /  17.5 °C 55.4 °F /  13 °C 29.76in /  1007.7hPa ENE 0.9mph /  1.4km/h 3.0mph /  4.8km/h 75% 0.00in /  0mm 0.0 W/m2
02:42 63.1 °F /  17.3 °C 55.0 °F /  12.8 °C 29.76in /  1007.7hPa Calm   3.0mph /  4.8km/h 75% 0.00in /  0mm 0.0 W/m2
02:48 63.0 °F /  17.2 °C 54.9 °F /  12.7 °C 29.75in /  1007.3hPa NE 0.9mph /  1.4km/h 1.0mph /  1.6km/h 75% 0.00in /  0mm 0.0 W/m2
02:54 62.8 °F /  17.1 °C 54.7 °F /  12.6 °C 29.75in /  1007.3hPa Calm   1.0mph /  1.6km/h 75% 0.00in /  0mm 0.0 W/m2
03:00 62.6 °F /  17 °C 54.9 °F /  12.7 °C 29.76in /  1007.7hPa Calm   1.0mph /  1.6km/h 76% 0.00in /  0mm 0.0 W/m2
03:07 62.4 °F /  16.9 °C 55.0 °F /  12.8 °C 29.75in /  1007.3hPa Calm   2.0mph /  3.2km/h 77% 0.00in /  0mm 0.0 W/m2
03:13 62.1 °F /  16.7 °C 54.7 °F /  12.6 °C 29.75in /  1007.3hPa Calm   3.0mph /  4.8km/h 77% 0.00in /  0mm 0.0 W/m2
03:19 61.9 °F /  16.6 °C 54.7 °F /  12.6 °C 29.75in /  1007.3hPa Calm   2.0mph /  3.2km/h 77% 0.00in /  0mm 0.0 W/m2
03:25 61.9 °F /  16.6 °C 54.9 °F /  12.7 °C 29.74in /  1007hPa Calm   3.0mph /  4.8km/h 78% 0.00in /  0mm 0.0 W/m2
03:31 61.7 °F /  16.5 °C 54.9 °F /  12.7 °C 29.74in /  1007hPa Calm     78% 0.00in /  0mm 0.0 W/m2
03:37 61.5 °F /  16.4 °C 54.7 °F /  12.6 °C 29.74in /  1007hPa Calm     78% 0.00in /  0mm 0.0 W/m2
03:43 61.5 °F /  16.4 °C 54.7 °F /  12.6 °C 29.74in /  1007hPa Calm     78% 0.00in /  0mm 0.0 W/m2
03:49 61.3 °F /  16.3 °C 54.5 °F /  12.5 °C 29.74in /  1007hPa Calm   1.0mph /  1.6km/h 78% 0.00in /  0mm 0.0 W/m2
03:55 61.2 °F /  16.2 °C 54.7 °F /  12.6 °C 29.74in /  1007hPa ENE 2.0mph /  3.2km/h 3.0mph /  4.8km/h 79% 0.00in /  0mm 0.0 W/m2
04:01 61.2 °F /  16.2 °C 54.7 °F /  12.6 °C 29.75in /  1007.3hPa Calm   2.0mph /  3.2km/h 79% 0.00in /  0mm 0.0 W/m2
04:07 61.0 °F /  16.1 °C 54.5 °F /  12.5 °C 29.75in /  1007.3hPa Calm     79% 0.00in /  0mm 0.0 W/m2
04:13 60.6 °F /  15.9 °C 54.1 °F /  12.3 °C 29.75in /  1007.3hPa Calm     79% 0.00in /  0mm 0.0 W/m2
04:19 60.4 °F /  15.8 °C 53.6 °F /  12 °C 29.75in /  1007.3hPa ENE 0.9mph /  1.4km/h 3.0mph /  4.8km/h 78% 0.00in /  0mm 0.0 W/m2
04:25 60.6 °F /  15.9 °C 53.1 °F /  11.7 °C 29.75in /  1007.3hPa Calm   1.0mph /  1.6km/h 76% 0.00in /  0mm 0.0 W/m2
04:31 60.6 °F /  15.9 °C 53.1 °F /  11.7 °C 29.75in /  1007.3hPa Calm   1.0mph /  1.6km/h 76% 0.00in /  0mm 0.0 W/m2
04:37 60.6 °F /  15.9 °C 53.1 °F /  11.7 °C 29.74in /  1007hPa Calm   1.0mph /  1.6km/h 76% 0.00in /  0mm 0.0 W/m2
04:43 60.6 °F /  15.9 °C 53.4 °F /  11.9 °C 29.74in /  1007hPa Calm   1.0mph /  1.6km/h 77% 0.00in /  0mm 0.0 W/m2
04:49 60.4 °F /  15.8 °C 53.2 °F /  11.8 °C 29.75in /  1007.3hPa East 0.9mph /  1.4km/h 1.0mph /  1.6km/h 77% 0.00in /  0mm 0.0 W/m2
04:55 60.4 °F /  15.8 °C 53.2 °F /  11.8 °C 29.75in /  1007.3hPa Calm     77% 0.00in /  0mm 0.0 W/m2
05:01 60.3 °F /  15.7 °C 53.1 °F /  11.7 °C 29.75in /  1007.3hPa Calm     77% 0.00in /  0mm 0.0 W/m2
05:07 60.3 °F /  15.7 °C 53.1 °F /  11.7 °C 29.75in /  1007.3hPa Calm   1.0mph /  1.6km/h 77% 0.00in /  0mm 0.0 W/m2
05:13 60.1 °F /  15.6 °C 52.9 °F /  11.6 °C 29.75in /  1007.3hPa Calm   1.0mph /  1.6km/h 77% 0.00in /  0mm 0.0 W/m2
05:19 60.1 °F /  15.6 °C 52.9 °F /  11.6 °C 29.75in /  1007.3hPa Calm     77% 0.00in /  0mm 0.0 W/m2
05:25 59.7 °F /  15.4 °C 52.5 °F /  11.4 °C 29.75in /  1007.3hPa Calm     77% 0.00in /  0mm 0.0 W/m2
05:31 59.7 °F /  15.4 °C 52.9 °F /  11.6 °C 29.76in /  1007.7hPa Calm     78% 0.00in /  0mm 0.0 W/m2
05:37 59.5 °F /  15.3 °C 52.7 °F /  11.5 °C 29.76in /  1007.7hPa NE 0.9mph /  1.4km/h 1.0mph /  1.6km/h 78% 0.00in /  0mm 0.0 W/m2
05:43 59.5 °F /  15.3 °C 53.1 °F /  11.7 °C 29.76in /  1007.7hPa Calm     79% 0.00in /  0mm 0.0 W/m2
05:49 59.4 °F /  15.2 °C 52.9 °F /  11.6 °C 29.76in /  1007.7hPa Calm   2.0mph /  3.2km/h 79% 0.00in /  0mm 0.0 W/m2
05:55 59.4 °F /  15.2 °C 53.2 °F /  11.8 °C 29.77in /  1008hPa Calm   1.0mph /  1.6km/h 80% 0.00in /  0mm 0.0 W/m2
06:01 59.2 °F /  15.1 °C 53.1 °F /  11.7 °C 29.77in /  1008hPa East 0.9mph /  1.4km/h 3.0mph /  4.8km/h 80% 0.00in /  0mm 0.0 W/m2
06:07 59.2 °F /  15.1 °C 53.4 °F /  11.9 °C 29.77in /  1008hPa Calm   2.0mph /  3.2km/h 81% 0.00in /  0mm 0.0 W/m2
06:13 58.8 °F /  14.9 °C 53.1 °F /  11.7 °C 29.78in /  1008.4hPa Calm   2.0mph /  3.2km/h 81% 0.00in /  0mm 0.0 W/m2
06:19 58.8 °F /  14.9 °C 53.4 °F /  11.9 °C 29.78in /  1008.4hPa ENE 0.9mph /  1.4km/h 1.0mph /  1.6km/h 82% 0.00in /  0mm 0.0 W/m2
06:25 58.6 °F /  14.8 °C 53.4 °F /  11.9 °C 29.78in /  1008.4hPa Calm   1.0mph /  1.6km/h 83% 0.00in /  0mm 0.0 W/m2
06:31 58.5 °F /  14.7 °C 53.2 °F /  11.8 °C 29.78in /  1008.4hPa Calm   1.0mph /  1.6km/h 83% 0.00in /  0mm 0.0 W/m2
06:37 58.3 °F /  14.6 °C 53.1 °F /  11.7 °C 29.78in /  1008.4hPa Calm   1.0mph /  1.6km/h 83% 0.00in /  0mm 0.0 W/m2
06:44 58.1 °F /  14.5 °C 52.9 °F /  11.6 °C 29.78in /  1008.4hPa Calm   1.0mph /  1.6km/h 83% 0.00in /  0mm 0.0 W/m2
06:50 57.9 °F /  14.4 °C 53.1 °F /  11.7 °C 29.78in /  1008.4hPa Calm   2.0mph /  3.2km/h 84% 0.00in /  0mm 0.0 W/m2
06:56 57.7 °F /  14.3 °C 52.9 °F /  11.6 °C 29.78in /  1008.4hPa East 0.9mph /  1.4km/h 1.0mph /  1.6km/h 84% 0.00in /  0mm 5.0 W/m2
07:02 57.6 °F /  14.2 °C 53.1 °F /  11.7 °C 29.78in /  1008.4hPa ESE 0.9mph /  1.4km/h 2.0mph /  3.2km/h 85% 0.00in /  0mm 7.0 W/m2
07:08 57.6 °F /  14.2 °C 53.1 °F /  11.7 °C 29.78in /  1008.4hPa Calm   1.0mph /  1.6km/h 85% 0.00in /  0mm 11.0 W/m2
07:14 57.6 °F /  14.2 °C 53.1 °F /  11.7 °C 29.78in /  1008.4hPa Calm     85% 0.00in /  0mm 12.0 W/m2
07:20 57.4 °F /  14.1 °C 52.5 °F /  11.4 °C 29.79in /  1008.7hPa Calm     84% 0.00in /  0mm 16.0 W/m2
07:26 57.4 °F /  14.1 °C 52.5 °F /  11.4 °C 29.79in /  1008.7hPa Calm     84% 0.00in /  0mm 18.0 W/m2
07:32 57.6 °F /  14.2 °C 52.7 °F /  11.5 °C 29.79in /  1008.7hPa Calm     84% 0.00in /  0mm 19.0 W/m2
07:38 57.7 °F /  14.3 °C 52.9 °F /  11.6 °C 29.79in /  1008.7hPa Calm   1.0mph /  1.6km/h 84% 0.00in /  0mm 21.0 W/m2
07:44 57.9 °F /  14.4 °C 53.1 °F /  11.7 °C 29.79in /  1008.7hPa Calm     84% 0.00in /  0mm 23.0 W/m2
07:50 58.5 °F /  14.7 °C 53.2 °F /  11.8 °C 29.79in /  1008.7hPa Calm     83% 0.00in /  0mm 25.0 W/m2
07:56 58.8 °F /  14.9 °C 53.6 °F /  12 °C 29.80in /  1009hPa Calm     83% 0.00in /  0mm 26.0 W/m2
08:02 59.4 °F /  15.2 °C 54.1 °F /  12.3 °C 29.80in /  1009hPa Calm     83% 0.00in /  0mm 28.0 W/m2
08:08 59.7 °F /  15.4 °C 54.9 °F /  12.7 °C 29.80in /  1009hPa Calm     84% 0.00in /  0mm 30.0 W/m2
08:14 60.3 °F /  15.7 °C 55.0 °F /  12.8 °C 29.80in /  1009hPa North 0.9mph /  1.4km/h 1.0mph /  1.6km/h 83% 0.00in /  0mm 32.0 W/m2
08:20 61.3 °F /  16.3 °C 55.4 °F /  13 °C 29.80in /  1009hPa Calm   1.0mph /  1.6km/h 81% 0.00in /  0mm 33.0 W/m2
08:26 62.1 °F /  16.7 °C 55.0 °F /  12.8 °C 29.80in /  1009hPa NNE 2.0mph /  3.2km/h 2.0mph /  3.2km/h 78% 0.00in /  0mm 33.0 W/m2
08:32 63.1 °F /  17.3 °C 55.4 °F /  13 °C 29.80in /  1009hPa Calm   1.0mph /  1.6km/h 76% 0.00in /  0mm 35.0 W/m2
08:38 64.6 °F /  18.1 °C 55.4 °F /  13 °C 29.80in /  1009hPa ENE 2.0mph /  3.2km/h 4.0mph /  6.4km/h 72% 0.00in /  0mm 37.0 W/m2
08:44 66.2 °F /  19 °C 55.8 °F /  13.2 °C 29.80in /  1009hPa ENE 2.0mph /  3.2km/h 3.0mph /  4.8km/h 69% 0.00in /  0mm 39.0 W/m2
08:50 67.5 °F /  19.7 °C 55.8 °F /  13.2 °C 29.80in /  1009hPa South 2.0mph /  3.2km/h 3.0mph /  4.8km/h 66% 0.00in /  0mm 40.0 W/m2
08:56 68.4 °F /  20.2 °C 55.2 °F /  12.9 °C 29.81in /  1009.4hPa Calm   6.0mph /  9.7km/h 63% 0.00in /  0mm 40.0 W/m2
09:02 69.4 °F /  20.8 °C 55.4 °F /  13 °C 29.80in /  1009hPa East 4.9mph /  7.9km/h 12.0mph /  19.3km/h 61% 0.00in /  0mm 40.0 W/m2
09:08 70.3 °F /  21.3 °C 54.9 °F /  12.7 °C 29.81in /  1009.4hPa ENE 2.0mph /  3.2km/h 10.0mph /  16.1km/h 58% 0.00in /  0mm 42.0 W/m2
09:14 70.9 °F /  21.6 °C 55.4 °F /  13 °C 29.81in /  1009.4hPa ESE 2.9mph /  4.7km/h 6.0mph /  9.7km/h 58% 0.00in /  0mm 44.0 W/m2
09:20 71.4 °F /  21.9 °C 54.5 °F /  12.5 °C 29.81in /  1009.4hPa NNE 0.9mph /  1.4km/h 13.0mph /  20.9km/h 55% 0.00in /  0mm 49.0 W/m2
09:26 72.0 °F /  22.2 °C 54.3 °F /  12.4 °C 29.81in /  1009.4hPa NNE 4.0mph /  6.4km/h 11.0mph /  17.7km/h 54% 0.00in /  0mm 62.0 W/m2
09:32 72.3 °F /  22.4 °C 54.1 °F /  12.3 °C 29.81in /  1009.4hPa NE 4.0mph /  6.4km/h 12.0mph /  19.3km/h 53% 0.00in /  0mm 62.0 W/m2
09:38 72.7 °F /  22.6 °C 54.5 °F /  12.5 °C 29.81in /  1009.4hPa NNE 4.9mph /  7.9km/h 13.0mph /  20.9km/h 53% 0.00in /  0mm 63.0 W/m2
09:44 72.9 °F /  22.7 °C 54.1 °F /  12.3 °C 29.81in /  1009.4hPa ESE 6.0mph /  9.7km/h 14.0mph /  22.5km/h 52% 0.00in /  0mm 628.0 W/m2
09:50 73.0 °F /  22.8 °C 54.9 °F /  12.7 °C 29.81in /  1009.4hPa East 6.0mph /  9.7km/h 13.0mph /  20.9km/h 53% 0.00in /  0mm 657.0 W/m2
09:56 73.6 °F /  23.1 °C 55.9 °F /  13.3 °C 29.81in /  1009.4hPa NNE 4.0mph /  6.4km/h 8.0mph /  12.9km/h 54% 0.00in /  0mm 680.0 W/m2
10:02 74.3 °F /  23.5 °C 56.1 °F /  13.4 °C 29.81in /  1009.4hPa ENE 10.1mph /  16.3km/h 11.0mph /  17.7km/h 53% 0.00in /  0mm 700.0 W/m2
10:08 74.8 °F /  23.8 °C 56.1 °F /  13.4 °C 29.81in /  1009.4hPa NE 4.0mph /  6.4km/h 11.0mph /  17.7km/h 52% 0.00in /  0mm 714.0 W/m2
10:14 75.4 °F /  24.1 °C 55.9 °F /  13.3 °C 29.81in /  1009.4hPa ESE 4.0mph /  6.4km/h 13.0mph /  20.9km/h 51% 0.00in /  0mm 737.0 W/m2
10:20 75.7 °F /  24.3 °C 55.8 °F /  13.2 °C 29.81in /  1009.4hPa East 0.9mph /  1.4km/h 12.0mph /  19.3km/h 50% 0.00in /  0mm 751.0 W/m2
10:26 76.3 °F /  24.6 °C 56.3 °F /  13.5 °C 29.81in /  1009.4hPa ENE 10.1mph /  16.3km/h 16.0mph /  25.7km/h 50% 0.00in /  0mm 772.0 W/m2
10:32 76.5 °F /  24.7 °C 55.9 °F /  13.3 °C 29.81in /  1009.4hPa ESE 4.0mph /  6.4km/h 9.0mph /  14.5km/h 49% 0.00in /  0mm 782.0 W/m2
10:38 76.6 °F /  24.8 °C 56.1 °F /  13.4 °C 29.81in /  1009.4hPa ENE 8.9mph /  14.3km/h 12.0mph /  19.3km/h 49% 0.00in /  0mm 802.0 W/m2
10:44 77.0 °F /  25 °C 55.2 °F /  12.9 °C 29.81in /  1009.4hPa North 2.9mph /  4.7km/h 13.0mph /  20.9km/h 47% 0.00in /  0mm 828.0 W/m2
10:50 77.2 °F /  25.1 °C 55.4 °F /  13 °C 29.82in /  1009.7hPa ENE 2.0mph /  3.2km/h 11.0mph /  17.7km/h 47% 0.00in /  0mm 853.0 W/m2
10:56 77.7 °F /  25.4 °C 55.2 °F /  12.9 °C 29.82in /  1009.7hPa South 10.1mph /  16.3km/h 16.0mph /  25.7km/h 46% 0.00in /  0mm 846.0 W/m2
11:02 77.4 °F /  25.2 °C 54.3 °F /  12.4 °C 29.81in /  1009.4hPa SE 2.0mph /  3.2km/h 12.0mph /  19.3km/h 45% 0.00in /  0mm 856.0 W/m2
11:08 77.5 °F /  25.3 °C 55.8 °F /  13.2 °C 29.82in /  1009.7hPa ENE 8.1mph /  13km/h 12.0mph /  19.3km/h 47% 0.00in /  0mm 879.0 W/m2
11:14 78.1 °F /  25.6 °C 55.6 °F /  13.1 °C 29.82in /  1009.7hPa ESE 6.0mph /  9.7km/h 15.0mph /  24.1km/h 46% 0.00in /  0mm 898.0 W/m2
11:20 78.3 °F /  25.7 °C 54.0 °F /  12.2 °C 29.82in /  1009.7hPa NE 4.0mph /  6.4km/h 16.0mph /  25.7km/h 43% 0.00in /  0mm 911.0 W/m2
11:26 78.3 °F /  25.7 °C 53.2 °F /  11.8 °C 29.81in /  1009.4hPa South 6.9mph /  11.1km/h 13.0mph /  20.9km/h 42% 0.00in /  0mm 918.0 W/m2
11:32 78.3 °F /  25.7 °C 54.0 °F /  12.2 °C 29.81in /  1009.4hPa North 2.9mph /  4.7km/h 11.0mph /  17.7km/h 43% 0.00in /  0mm 926.0 W/m2
11:38 78.6 °F /  25.9 °C 52.9 °F /  11.6 °C 29.81in /  1009.4hPa North 0.9mph /  1.4km/h 13.0mph /  20.9km/h 41% 0.00in /  0mm 944.0 W/m2
11:44 79.0 °F /  26.1 °C 53.2 °F /  11.8 °C 29.80in /  1009hPa SSE 6.9mph /  11.1km/h 12.0mph /  19.3km/h 41% 0.00in /  0mm 939.0 W/m2
11:50 79.2 °F /  26.2 °C 54.1 °F /  12.3 °C 29.81in /  1009.4hPa ENE 2.9mph /  4.7km/h 11.0mph /  17.7km/h 42% 0.00in /  0mm 949.0 W/m2
11:56 79.3 °F /  26.3 °C 52.9 °F /  11.6 °C 29.80in /  1009hPa NE 11.0mph /  17.7km/h 16.0mph /  25.7km/h 40% 0.00in /  0mm 969.0 W/m2
12:02 79.9 °F /  26.6 °C 52.7 °F /  11.5 °C 29.80in /  1009hPa SE 8.1mph /  13km/h 11.0mph /  17.7km/h 39% 0.00in /  0mm 976.0 W/m2
12:08 79.9 °F /  26.6 °C 52.0 °F /  11.1 °C 29.80in /  1009hPa East 12.1mph /  19.5km/h 12.1mph /  19.5km/h 38% 0.00in /  0mm 983.0 W/m2
12:14 79.5 °F /  26.4 °C 52.3 °F /  11.3 °C 29.80in /  1009hPa East 6.0mph /  9.7km/h 14.0mph /  22.5km/h 39% 0.00in /  0mm 981.0 W/m2
12:20 79.5 °F /  26.4 °C 51.6 °F /  10.9 °C 29.80in /  1009hPa ESE 6.0mph /  9.7km/h 14.0mph /  22.5km/h 38% 0.00in /  0mm 984.0 W/m2
12:26 79.9 °F /  26.6 °C 52.7 °F /  11.5 °C 29.80in /  1009hPa SSE 2.0mph /  3.2km/h 10.0mph /  16.1km/h 39% 0.00in /  0mm 1027.0 W/m2
12:32 80.6 °F /  27 °C 52.0 °F /  11.1 °C 29.80in /  1009hPa ESE 12.1mph /  19.5km/h 14.0mph /  22.5km/h 37% 0.00in /  0mm 997.0 W/m2
12:38 80.8 °F /  27.1 °C 53.6 °F /  12 °C 29.80in /  1009hPa NE 4.0mph /  6.4km/h 8.0mph /  12.9km/h 39% 0.00in /  0mm 1056.0 W/m2
12:44 81.0 °F /  27.2 °C 51.4 °F /  10.8 °C 29.80in /  1009hPa ESE 12.1mph /  19.5km/h 12.1mph /  19.5km/h 36% 0.00in /  0mm 1002.0 W/m2
12:50 81.0 °F /  27.2 °C 51.4 °F /  10.8 °C 29.79in /  1008.7hPa East 4.0mph /  6.4km/h 10.0mph /  16.1km/h 36% 0.00in /  0mm 1009.0 W/m2
12:57 81.3 °F /  27.4 °C 51.1 °F /  10.6 °C 29.79in /  1008.7hPa ESE 4.0mph /  6.4km/h 7.0mph /  11.3km/h 35% 0.00in /  0mm 1000.0 W/m2
13:03 81.7 °F /  27.6 °C 50.5 °F /  10.3 °C 29.79in /  1008.7hPa NE 8.1mph /  13km/h 16.0mph /  25.7km/h 34% 0.00in /  0mm 997.0 W/m2
13:09 81.7 °F /  27.6 °C 50.5 °F /  10.3 °C 29.79in /  1008.7hPa East 8.1mph /  13km/h 16.0mph /  25.7km/h 34% 0.00in /  0mm 1018.0 W/m2
13:15 81.9 °F /  27.7 °C 50.0 °F /  10 °C 29.79in /  1008.7hPa East 8.1mph /  13km/h 12.0mph /  19.3km/h 33% 0.00in /  0mm 1016.0 W/m2
13:21 82.0 °F /  27.8 °C 48.4 °F /  9.1 °C 29.79in /  1008.7hPa South 6.0mph /  9.7km/h 16.0mph /  25.7km/h 31% 0.00in /  0mm 1048.0 W/m2
13:27 82.0 °F /  27.8 °C 50.2 °F /  10.1 °C 29.79in /  1008.7hPa East 6.0mph /  9.7km/h 13.0mph /  20.9km/h 33% 0.00in /  0mm 1048.0 W/m2
13:33 81.9 °F /  27.7 °C 50.7 °F /  10.4 °C 29.78in /  1008.4hPa East 8.1mph /  13km/h 11.0mph /  17.7km/h 34% 0.00in /  0mm 1065.0 W/m2
13:39 81.1 °F /  27.3 °C 50.9 °F /  10.5 °C 29.78in /  1008.4hPa SE 2.0mph /  3.2km/h 13.0mph /  20.9km/h 35% 0.00in /  0mm 1035.0 W/m2
13:45 81.1 °F /  27.3 °C 48.6 °F /  9.2 °C 29.78in /  1008.4hPa ESE 4.9mph /  7.9km/h 17.0mph /  27.4km/h 32% 0.00in /  0mm 983.0 W/m2
13:51 81.9 °F /  27.7 °C 50.0 °F /  10 °C 29.79in /  1008.7hPa SE 10.1mph /  16.3km/h 14.0mph /  22.5km/h 33% 0.00in /  0mm 1016.0 W/m2
13:57 82.0 °F /  27.8 °C 50.2 °F /  10.1 °C 29.78in /  1008.4hPa NE 2.9mph /  4.7km/h 16.0mph /  25.7km/h 33% 0.00in /  0mm 984.0 W/m2
14:03 82.4 °F /  28 °C 48.7 °F /  9.3 °C 29.78in /  1008.4hPa NE 4.0mph /  6.4km/h 18.0mph /  29km/h 31% 0.00in /  0mm 1027.0 W/m2
14:09 81.9 °F /  27.7 °C 47.3 °F /  8.5 °C 29.78in /  1008.4hPa SE 6.0mph /  9.7km/h 10.0mph /  16.1km/h 30% 0.00in /  0mm 993.0 W/m2
14:15 81.9 °F /  27.7 °C 50.7 °F /  10.4 °C 29.78in /  1008.4hPa SSE 6.0mph /  9.7km/h 8.0mph /  12.9km/h 34% 0.00in /  0mm 981.0 W/m2
14:22 82.0 °F /  27.8 °C 53.2 °F /  11.8 °C 29.78in /  1008.4hPa NE 4.9mph /  7.9km/h 7.0mph /  11.3km/h 37% 0.00in /  0mm 1004.0 W/m2
14:27 82.2 °F /  27.9 °C 49.5 °F /  9.7 °C 29.78in /  1008.4hPa NE 4.9mph /  7.9km/h 11.0mph /  17.7km/h 32% 0.00in /  0mm 962.0 W/m2
14:33 82.8 °F /  28.2 °C 51.4 °F /  10.8 °C 29.78in /  1008.4hPa NE 2.9mph /  4.7km/h 7.0mph /  11.3km/h 34% 0.00in /  0mm 970.0 W/m2
14:39 82.9 °F /  28.3 °C 50.9 °F /  10.5 °C 29.77in /  1008hPa North 4.0mph /  6.4km/h 12.0mph /  19.3km/h 33% 0.00in /  0mm 1004.0 W/m2
14:45 82.9 °F /  28.3 °C 50.0 °F /  10 °C 29.77in /  1008hPa NE 14.1mph /  22.7km/h 14.1mph /  22.7km/h 32% 0.00in /  0mm 907.0 W/m2
14:51 82.8 °F /  28.2 °C 49.8 °F /  9.9 °C 29.77in /  1008hPa East 8.1mph /  13km/h 10.0mph /  16.1km/h 32% 0.00in /  0mm 912.0 W/m2
14:57 82.8 °F /  28.2 °C 49.1 °F /  9.5 °C 29.77in /  1008hPa SE 12.1mph /  19.5km/h 17.0mph /  27.4km/h 31% 0.00in /  0mm 926.0 W/m2
15:04 82.0 °F /  27.8 °C 46.6 °F /  8.1 °C 29.77in /  1008hPa East 4.0mph /  6.4km/h 11.0mph /  17.7km/h 29% 0.00in /  0mm 921.0 W/m2
15:10 81.9 °F /  27.7 °C 49.1 °F /  9.5 °C 29.77in /  1008hPa NE 0.9mph /  1.4km/h 10.0mph /  16.1km/h 32% 0.00in /  0mm 295.0 W/m2
15:16 81.9 °F /  27.7 °C 49.1 °F /  9.5 °C 29.76in /  1007.7hPa ENE 6.0mph /  9.7km/h 7.0mph /  11.3km/h 32% 0.00in /  0mm 863.0 W/m2
15:22 82.2 °F /  27.9 °C 47.7 °F /  8.7 °C 29.76in /  1007.7hPa ESE 4.9mph /  7.9km/h 12.0mph /  19.3km/h 30% 0.00in /  0mm 898.0 W/m2
15:28 82.6 °F /  28.1 °C 48.0 °F /  8.9 °C 29.76in /  1007.7hPa SE 11.0mph /  17.7km/h 13.0mph /  20.9km/h 30% 0.00in /  0mm 874.0 W/m2
15:34 82.4 °F /  28 °C 46.9 °F /  8.3 °C 29.76in /  1007.7hPa East 6.0mph /  9.7km/h 12.0mph /  19.3km/h 29% 0.00in /  0mm 823.0 W/m2
15:40 82.6 °F /  28.1 °C 48.0 °F /  8.9 °C 29.76in /  1007.7hPa East 4.0mph /  6.4km/h 10.0mph /  16.1km/h 30% 0.00in /  0mm 807.0 W/m2
15:47 82.8 °F /  28.2 °C 48.2 °F /  9 °C 29.76in /  1007.7hPa ENE 6.0mph /  9.7km/h 7.0mph /  11.3km/h 30% 0.00in /  0mm 791.0 W/m2
15:53 82.9 °F /  28.3 °C 48.4 °F /  9.1 °C 29.75in /  1007.3hPa NE 4.0mph /  6.4km/h 13.0mph /  20.9km/h 30% 0.00in /  0mm 810.0 W/m2
15:59 83.1 °F /  28.4 °C 48.6 °F /  9.2 °C 29.75in /  1007.3hPa ESE 6.9mph /  11.1km/h 13.0mph /  20.9km/h 30% 0.00in /  0mm 733.0 W/m2
16:05 83.1 °F /  28.4 °C 49.3 °F /  9.6 °C 29.75in /  1007.3hPa ESE 2.0mph /  3.2km/h 9.0mph /  14.5km/h 31% 0.00in /  0mm 708.0 W/m2
16:11 82.8 °F /  28.2 °C 47.3 °F /  8.5 °C 29.75in /  1007.3hPa ENE 2.9mph /  4.7km/h 12.0mph /  19.3km/h 29% 0.00in /  0mm 703.0 W/m2
16:17 82.8 °F /  28.2 °C 47.3 °F /  8.5 °C 29.76in /  1007.7hPa SSE 8.1mph /  13km/h 13.0mph /  20.9km/h 29% 0.00in /  0mm 682.0 W/m2
16:23 82.8 °F /  28.2 °C 48.2 °F /  9 °C 29.76in /  1007.7hPa South 2.9mph /  4.7km/h 12.0mph /  19.3km/h 30% 0.00in /  0mm 626.0 W/m2
16:29 82.6 °F /  28.1 °C 48.0 °F /  8.9 °C 29.75in /  1007.3hPa SSE 2.9mph /  4.7km/h 9.0mph /  14.5km/h 30% 0.00in /  0mm 610.0 W/m2
16:35 82.8 °F /  28.2 °C 48.2 °F /  9 °C 29.76in /  1007.7hPa East 2.0mph /  3.2km/h 12.0mph /  19.3km/h 30% 0.00in /  0mm 619.0 W/m2
16:41 82.9 °F /  28.3 °C 48.4 °F /  9.1 °C 29.75in /  1007.3hPa ESE 4.0mph /  6.4km/h 6.0mph /  9.7km/h 30% 0.00in /  0mm 610.0 W/m2
16:47 83.3 °F /  28.5 °C 49.5 °F /  9.7 °C 29.75in /  1007.3hPa SE 8.1mph /  13km/h 9.0mph /  14.5km/h 31% 0.00in /  0mm 547.0 W/m2
16:53 82.8 °F /  28.2 °C 48.2 °F /  9 °C 29.75in /  1007.3hPa ESE 6.9mph /  11.1km/h 11.0mph /  17.7km/h 30% 0.00in /  0mm 519.0 W/m2
16:59 82.2 °F /  27.9 °C 48.6 °F /  9.2 °C 29.76in /  1007.7hPa ESE 4.9mph /  7.9km/h 8.0mph /  12.9km/h 31% 0.00in /  0mm 503.0 W/m2
17:05 82.2 °F /  27.9 °C 48.6 °F /  9.2 °C 29.76in /  1007.7hPa SSE 0.9mph /  1.4km/h 9.0mph /  14.5km/h 31% 0.00in /  0mm 473.0 W/m2
17:12 82.2 °F /  27.9 °C 47.7 °F /  8.7 °C 29.76in /  1007.7hPa East 4.9mph /  7.9km/h 8.0mph /  12.9km/h 30% 0.00in /  0mm 445.0 W/m2
17:18 82.2 °F /  27.9 °C 49.5 °F /  9.7 °C 29.76in /  1007.7hPa SE 2.0mph /  3.2km/h 9.0mph /  14.5km/h 32% 0.00in /  0mm 418.0 W/m2
17:24 82.2 °F /  27.9 °C 49.5 °F /  9.7 °C 29.76in /  1007.7hPa ESE 0.9mph /  1.4km/h 8.0mph /  12.9km/h 32% 0.00in /  0mm 381.0 W/m2
17:30 82.4 °F /  28 °C 51.3 °F /  10.7 °C 29.76in /  1007.7hPa East 0.9mph /  1.4km/h 4.0mph /  6.4km/h 34% 0.00in /  0mm 362.0 W/m2
17:36 82.6 °F /  28.1 °C 48.9 °F /  9.4 °C 29.76in /  1007.7hPa ESE 2.0mph /  3.2km/h 9.0mph /  14.5km/h 31% 0.00in /  0mm 336.0 W/m2
17:42 82.6 °F /  28.1 °C 49.8 °F /  9.9 °C 29.76in /  1007.7hPa SE 4.0mph /  6.4km/h 9.0mph /  14.5km/h 32% 0.00in /  0mm 325.0 W/m2
17:48 82.6 °F /  28.1 °C 49.8 °F /  9.9 °C 29.76in /  1007.7hPa SE 2.0mph /  3.2km/h 7.0mph /  11.3km/h 32% 0.00in /  0mm 299.0 W/m2
17:54 82.2 °F /  27.9 °C 48.6 °F /  9.2 °C 29.76in /  1007.7hPa NNE 2.9mph /  4.7km/h 8.0mph /  12.9km/h 31% 0.00in /  0mm 265.0 W/m2
18:00 81.5 °F /  27.5 °C 48.7 °F /  9.3 °C 29.76in /  1007.7hPa SSE 4.0mph /  6.4km/h 8.0mph /  12.9km/h 32% 0.00in /  0mm 220.0 W/m2
18:06 81.0 °F /  27.2 °C 48.4 °F /  9.1 °C 29.76in /  1007.7hPa ESE 6.9mph /  11.1km/h 10.0mph /  16.1km/h 32% 0.00in /  0mm 197.0 W/m2
18:12 80.1 °F /  26.7 °C 48.4 °F /  9.1 °C 29.76in /  1007.7hPa South 10.1mph /  16.3km/h 10.1mph /  16.3km/h 33% 0.00in /  0mm 160.0 W/m2
18:18 79.3 °F /  26.3 °C 47.7 °F /  8.7 °C 29.77in /  1008hPa SE 11.0mph /  17.7km/h 15.0mph /  24.1km/h 33% 0.00in /  0mm 46.0 W/m2
18:25 78.6 °F /  25.9 °C 47.8 °F /  8.8 °C 29.76in /  1007.7hPa SSE 4.0mph /  6.4km/h 8.0mph /  12.9km/h 34% 0.00in /  0mm 33.0 W/m2
18:31 78.3 °F /  25.7 °C 49.1 °F /  9.5 °C 29.76in /  1007.7hPa East 0.9mph /  1.4km/h 5.0mph /  8km/h 36% 0.00in /  0mm 93.0 W/m2
18:37 78.4 °F /  25.8 °C 49.3 °F /  9.6 °C 29.76in /  1007.7hPa ESE 4.0mph /  6.4km/h 7.0mph /  11.3km/h 36% 0.00in /  0mm 67.0 W/m2
18:43 78.4 °F /  25.8 °C 49.3 °F /  9.6 °C 29.77in /  1008hPa East 4.0mph /  6.4km/h 11.0mph /  17.7km/h 36% 0.00in /  0mm 46.0 W/m2
18:49 78.1 °F /  25.6 °C 49.6 °F /  9.8 °C 29.77in /  1008hPa ESE 4.9mph /  7.9km/h 6.0mph /  9.7km/h 37% 0.00in /  0mm 26.0 W/m2
18:55 77.5 °F /  25.3 °C 50.0 °F /  10 °C 29.77in /  1008hPa SSW 4.0mph /  6.4km/h 6.0mph /  9.7km/h 38% 0.00in /  0mm 16.0 W/m2
19:01 76.8 °F /  24.9 °C 48.6 °F /  9.2 °C 29.77in /  1008hPa East 4.9mph /  7.9km/h 8.0mph /  12.9km/h 37% 0.00in /  0mm 11.0 W/m2
19:07 76.5 °F /  24.7 °C 48.9 °F /  9.4 °C 29.78in /  1008.4hPa ESE 4.9mph /  7.9km/h 8.0mph /  12.9km/h 38% 0.00in /  0mm 5.0 W/m2
19:13 75.7 °F /  24.3 °C 49.1 °F /  9.5 °C 29.77in /  1008hPa SE 2.0mph /  3.2km/h 11.0mph /  17.7km/h 39% 0.00in /  0mm 0.0 W/m2
19:20 75.4 °F /  24.1 °C 49.5 °F /  9.7 °C 29.77in /  1008hPa ESE 2.0mph /  3.2km/h 8.0mph /  12.9km/h 40% 0.00in /  0mm 0.0 W/m2
19:26 75.0 °F /  23.9 °C 49.6 °F /  9.8 °C 29.78in /  1008.4hPa SSE 2.9mph /  4.7km/h 5.0mph /  8km/h 41% 0.00in /  0mm 0.0 W/m2
19:32 74.7 °F /  23.7 °C 49.5 °F /  9.7 °C 29.78in /  1008.4hPa ESE 6.0mph /  9.7km/h 7.0mph /  11.3km/h 41% 0.00in /  0mm 0.0 W/m2
19:38 74.3 °F /  23.5 °C 49.6 °F /  9.8 °C 29.78in /  1008.4hPa SE 4.9mph /  7.9km/h 7.0mph /  11.3km/h 42% 0.00in /  0mm 0.0 W/m2
19:44 73.9 °F /  23.3 °C 50.0 °F /  10 °C 29.78in /  1008.4hPa SE 4.0mph /  6.4km/h 7.0mph /  11.3km/h 43% 0.00in /  0mm 0.0 W/m2
19:50 73.8 °F /  23.2 °C 50.5 °F /  10.3 °C 29.78in /  1008.4hPa SE 2.9mph /  4.7km/h 6.0mph /  9.7km/h 44% 0.00in /  0mm 0.0 W/m2
19:56 73.6 °F /  23.1 °C 50.4 °F /  10.2 °C 29.79in /  1008.7hPa ESE 2.9mph /  4.7km/h 7.0mph /  11.3km/h 44% 0.00in /  0mm 0.0 W/m2
20:02 73.2 °F /  22.9 °C 49.5 °F /  9.7 °C 29.79in /  1008.7hPa SSE 4.0mph /  6.4km/h 9.0mph /  14.5km/h 43% 0.00in /  0mm 0.0 W/m2
20:09 73.0 °F /  22.8 °C 48.6 °F /  9.2 °C 29.79in /  1008.7hPa SE 4.9mph /  7.9km/h 8.0mph /  12.9km/h 42% 0.00in /  0mm 0.0 W/m2
20:15 72.9 °F /  22.7 °C 49.1 °F /  9.5 °C 29.79in /  1008.7hPa SE 2.0mph /  3.2km/h 5.0mph /  8km/h 43% 0.00in /  0mm 0.0 W/m2
20:21 72.7 °F /  22.6 °C 48.9 °F /  9.4 °C 29.80in /  1009hPa ESE 0.9mph /  1.4km/h 5.0mph /  8km/h 43% 0.00in /  0mm 0.0 W/m2
20:27 72.5 °F /  22.5 °C 48.7 °F /  9.3 °C 29.80in /  1009hPa ESE 0.9mph /  1.4km/h 6.0mph /  9.7km/h 43% 0.00in /  0mm 0.0 W/m2
20:33 72.3 °F /  22.4 °C 48.6 °F /  9.2 °C 29.80in /  1009hPa SE 2.9mph /  4.7km/h 8.0mph /  12.9km/h 43% 0.00in /  0mm 0.0 W/m2
20:39 72.1 °F /  22.3 °C 48.4 °F /  9.1 °C 29.80in /  1009hPa SE 4.0mph /  6.4km/h 5.0mph /  8km/h 43% 0.00in /  0mm 0.0 W/m2
20:45 72.1 °F /  22.3 °C 48.4 °F /  9.1 °C 29.80in /  1009hPa SE 2.0mph /  3.2km/h 4.0mph /  6.4km/h 43% 0.00in /  0mm 0.0 W/m2
20:52 72.0 °F /  22.2 °C 48.2 °F /  9 °C 29.80in /  1009hPa SSE 2.9mph /  4.7km/h 7.0mph /  11.3km/h 43% 0.00in /  0mm 0.0 W/m2
20:58 72.0 °F /  22.2 °C 48.9 °F /  9.4 °C 29.80in /  1009hPa ESE 4.0mph /  6.4km/h 5.0mph /  8km/h 44% 0.00in /  0mm 0.0 W/m2
21:04 71.6 °F /  22 °C 48.6 °F /  9.2 °C 29.80in /  1009hPa SE 2.0mph /  3.2km/h 6.0mph /  9.7km/h 44% 0.00in /  0mm 0.0 W/m2
21:10 71.4 °F /  21.9 °C 48.4 °F /  9.1 °C 29.81in /  1009.4hPa ESE 2.9mph /  4.7km/h 4.0mph /  6.4km/h 44% 0.00in /  0mm 0.0 W/m2
21:16 71.2 °F /  21.8 °C 48.7 °F /  9.3 °C 29.81in /  1009.4hPa SE 4.0mph /  6.4km/h 6.0mph /  9.7km/h 45% 0.00in /  0mm 0.0 W/m2
21:22 71.1 °F /  21.7 °C 48.6 °F /  9.2 °C 29.81in /  1009.4hPa SE 4.9mph /  7.9km/h 6.0mph /  9.7km/h 45% 0.00in /  0mm 0.0 W/m2
21:28 70.9 °F /  21.6 °C 49.1 °F /  9.5 °C 29.82in /  1009.7hPa SE 2.0mph /  3.2km/h 5.0mph /  8km/h 46% 0.00in /  0mm 0.0 W/m2
21:34 70.9 °F /  21.6 °C 49.6 °F /  9.8 °C 29.82in /  1009.7hPa Calm   2.0mph /  3.2km/h 47% 0.00in /  0mm 0.0 W/m2
21:41 70.5 °F /  21.4 °C 49.3 °F /  9.6 °C 29.82in /  1009.7hPa ESE 2.9mph /  4.7km/h 6.0mph /  9.7km/h 47% 0.00in /  0mm 0.0 W/m2
21:47 70.3 °F /  21.3 °C 49.6 °F /  9.8 °C 29.83in /  1010hPa SE 6.9mph /  11.1km/h 9.0mph /  14.5km/h 48% 0.00in /  0mm 0.0 W/m2
21:53 70.3 °F /  21.3 °C 49.6 °F /  9.8 °C 29.83in /  1010hPa SE 4.0mph /  6.4km/h 7.0mph /  11.3km/h 48% 0.00in /  0mm 0.0 W/m2
21:59 70.2 °F /  21.2 °C 50.2 °F /  10.1 °C 29.83in /  1010hPa Calm   4.0mph /  6.4km/h 49% 0.00in /  0mm 0.0 W/m2
22:05 70.2 °F /  21.2 °C 50.2 °F /  10.1 °C 29.83in /  1010hPa SE 4.0mph /  6.4km/h 5.0mph /  8km/h 49% 0.00in /  0mm 0.0 W/m2
22:11 70.2 °F /  21.2 °C 50.2 °F /  10.1 °C 29.83in /  1010hPa East 6.0mph /  9.7km/h 7.0mph /  11.3km/h 49% 0.00in /  0mm 0.0 W/m2
22:17 70.2 °F /  21.2 °C 50.7 °F /  10.4 °C 29.83in /  1010hPa Calm   4.0mph /  6.4km/h 50% 0.00in /  0mm 0.0 W/m2
22:24 70.0 °F /  21.1 °C 50.5 °F /  10.3 °C 29.83in /  1010hPa ESE 2.0mph /  3.2km/h 5.0mph /  8km/h 50% 0.00in /  0mm 0.0 W/m2
22:30 69.8 °F /  21 °C 50.4 °F /  10.2 °C 29.83in /  1010hPa SE 2.0mph /  3.2km/h 9.0mph /  14.5km/h 50% 0.00in /  0mm 0.0 W/m2
22:36 70.0 °F /  21.1 °C 50.5 °F /  10.3 °C 29.84in /  1010.4hPa SE 0.9mph /  1.4km/h 6.0mph /  9.7km/h 50% 0.00in /  0mm 0.0 W/m2
22:42 70.0 °F /  21.1 °C 50.5 °F /  10.3 °C 29.84in /  1010.4hPa SE 2.0mph /  3.2km/h 3.0mph /  4.8km/h 50% 0.00in /  0mm 0.0 W/m2
22:48 69.6 °F /  20.9 °C 50.2 °F /  10.1 °C 29.84in /  1010.4hPa ESE 2.9mph /  4.7km/h 4.0mph /  6.4km/h 50% 0.00in /  0mm 0.0 W/m2
22:54 69.4 °F /  20.8 °C 50.5 °F /  10.3 °C 29.84in /  1010.4hPa Calm   2.0mph /  3.2km/h 51% 0.00in /  0mm 0.0 W/m2
23:00 69.3 °F /  20.7 °C 50.9 °F /  10.5 °C 29.84in /  1010.4hPa Calm   2.0mph /  3.2km/h 52% 0.00in /  0mm 0.0 W/m2
23:06 68.7 °F /  20.4 °C 50.9 °F /  10.5 °C 29.84in /  1010.4hPa Calm   3.0mph /  4.8km/h 53% 0.00in /  0mm 0.0 W/m2
23:12 68.4 °F /  20.2 °C 51.1 °F /  10.6 °C 29.84in /  1010.4hPa Calm   1.0mph /  1.6km/h 54% 0.00in /  0mm 0.0 W/m2
23:19 67.8 °F /  19.9 °C 51.1 °F /  10.6 °C 29.85in /  1010.7hPa Calm   1.0mph /  1.6km/h 55% 0.00in /  0mm 0.0 W/m2
23:25 67.5 °F /  19.7 °C 51.3 °F /  10.7 °C 29.85in /  1010.7hPa ENE 0.9mph /  1.4km/h 3.0mph /  4.8km/h 56% 0.00in /  0mm 0.0 W/m2
23:31 66.9 °F /  19.4 °C 51.6 °F /  10.9 °C 29.85in /  1010.7hPa Calm   1.0mph /  1.6km/h 58% 0.00in /  0mm 0.0 W/m2
23:37 66.6 °F /  19.2 °C 51.8 °F /  11 °C 29.85in /  1010.7hPa Calm   2.0mph /  3.2km/h 59% 0.00in /  0mm 0.0 W/m2
23:43 66.0 °F /  18.9 °C 51.8 °F /  11 °C 29.85in /  1010.7hPa Calm   1.0mph /  1.6km/h 60% 0.00in /  0mm 0.0 W/m2
23:49 65.7 °F /  18.7 °C 51.8 °F /  11 °C 29.85in /  1010.7hPa Calm   1.0mph /  1.6km/h 61% 0.00in /  0mm 0.0 W/m2
23:55 65.1 °F /  18.4 °C 51.3 °F /  10.7 °C 29.85in /  1010.7hPa Calm   2.0mph /  3.2km/h 61% 0.00in /  0mm 0.0 W/m2
Olympia, Windhoek, Namibia
Compliments of Weather Underground - 3 mb